Flight Track Log - Related Links

Times and Time Zones

All times are in EDT time to prevent confusion due to time zone crossing. See the EJA720 flight status page for this flight to view local times or setup timezone preferences in your user account.

Time Position Orientation Groundspeed Altitude Reporting Facility
EDT Latitude Longitude Course Direction KTS MPH feet Rate Location/Type
Thu 08:06:44 AM 32.8333 -97.3667 360° North 164 189 1,500  Level Dallas / Fort Worth TRACON
Thu 08:07:44 AM 32.8833 -97.3667 360° North 188 216 3,400 1,909 Climbing Dallas / Fort Worth TRACON
Thu 08:08:56 AM 32.9667 -97.3833 350° North 278 320 5,700 2,571 Climbing Dallas / Fort Worth TRACON
Thu 08:09:50 AM 33.0333 -97.3667 12° North 270 311 8,800 3,421 Climbing Dallas / Fort Worth TRACON
Thu 08:10:50 AM 33.0333 -97.2833 90° East 309 356 12,200 3,322 Climbing Dallas / Fort Worth TRACON
Thu 08:11:51 AM 32.9731 -97.2006 131° Southeast 174 200 15,500 2,380 Climbing Fort Worth Center
Thu 08:12:51 AM 32.9811 -97.0989 85° East 282 325 17,000 1,100 Climbing Fort Worth Center
Thu 08:13:51 AM 32.9956 -96.9825 82° East 329 379 17,700 1,750 Climbing Fort Worth Center
Thu 08:14:51 AM 33.0097 -96.8833 80° East 334 384 20,500 2,100 Climbing Fort Worth Center
Thu 08:16:00 AM 32.9945 -96.7195 96° East  Level FlightAware Approximate
Thu 08:16:51 AM 33.0481 -96.6228 96° East 389 448 24,000  Level Fort Worth Center
Thu 08:17:51 AM 33.0678 -96.4739 81° East 441 507 25,500 1,450 Climbing Fort Worth Center
Thu 08:18:51 AM 33.0856 -96.3447 81° East 455 524 26,900 1,500 Climbing Fort Worth Center
Thu 08:19:51 AM 33.1406 -96.1903 67° East 450 518 28,500 1,350 Climbing Fort Worth Center
Thu 08:20:51 AM 33.1914 -96.0631 64° Northeast 456 525 29,600 1,250 Climbing Fort Worth Center
Thu 08:21:51 AM 33.2544 -95.9081 64° Northeast 468 539 31,000 700 Climbing Fort Worth Center
Thu 08:22:51 AM 33.3069 -95.7781 64° Northeast 474 545 31,000  Level Fort Worth Center
Thu 08:23:51 AM 33.3697 -95.6225 64° Northeast 469 540 31,000  Level Fort Worth Center
Thu 08:24:51 AM 33.4239 -95.4797 66° East 464 534 31,000  Level Fort Worth Center
Thu 08:25:51 AM 33.4822 -95.3389 64° Northeast 464 534 31,000 200 Level Fort Worth Center
Thu 08:26:51 AM 33.5403 -95.1956 64° Northeast 464 534 31,400 700 Climbing Fort Worth Center
Thu 08:27:51 AM 33.6172 -95.0714 53° Northeast 464 534 32,400 800 Climbing Fort Worth Center
Thu 08:28:51 AM 33.6983 -94.9442 53° Northeast 469 540 33,000 300 Climbing Fort Worth Center
Thu 08:29:51 AM 33.7836 -94.8194 51° Northeast 479 551 33,000  Level Fort Worth Center
Thu 08:30:51 AM 33.8675 -94.7394 38° Northeast 464 534 33,000  Level Fort Worth Center
Thu 08:31:51 AM 33.9742 -94.6636 31° Northeast 444 511 33,000  Level Fort Worth Center
Thu 08:32:51 AM 34.0850 -94.5822 31° Northeast 444 511 33,000  Level Fort Worth Center
Thu 08:33:51 AM 34.1942 -94.5108 28° Northeast 444 511 33,000  Level Fort Worth Center
Thu 08:35:56 AM 34.3953 -94.2686 45° Northeast 454 522 33,000  Level Memphis Center
Thu 08:36:56 AM 34.4703 -94.1411 54° Northeast 465 535 33,000  Level Memphis Center
Thu 08:37:56 AM 34.5514 -94.0083 53° Northeast 478 550 33,000  Level Memphis Center
Thu 08:38:56 AM 34.6281 -93.8781 54° Northeast 483 556 33,000  Level Memphis Center
Thu 08:39:56 AM 34.7069 -93.7447 54° Northeast 483 556 33,000  Level Memphis Center
Thu 08:40:56 AM 34.7833 -93.6139 55° Northeast 483 556 33,000  Level Memphis Center
Thu 08:41:56 AM 34.8619 -93.4803 54° Northeast 483 556 33,000  Level Memphis Center
Thu 08:42:56 AM 34.9383 -93.3461 55° Northeast 483 556 33,000  Level Memphis Center
Thu 08:43:56 AM 35.0144 -93.2119 55° Northeast 488 562 33,000  Level Memphis Center
Thu 08:44:56 AM 35.0881 -93.0850 55° Northeast 483 556 33,000  Level Memphis Center
Thu 08:45:56 AM 35.1661 -92.9506 55° Northeast 478 550 33,000  Level Memphis Center
Thu 08:46:56 AM 35.2419 -92.8181 55° Northeast 478 550 33,000  Level Memphis Center
Thu 08:47:56 AM 35.3153 -92.6803 57° Northeast 478 550 33,000  Level Memphis Center
Thu 08:48:56 AM 35.3969 -92.5578 51° Northeast 478 550 33,000  Level Memphis Center
Thu 08:49:56 AM 35.4703 -92.4169 57° Northeast 478 550 33,000  Level Memphis Center
Thu 08:50:56 AM 35.5453 -92.2836 55° Northeast 478 550 33,000  Level Memphis Center
Thu 08:51:56 AM 35.6181 -92.1550 55° Northeast 466 536 33,000  Level Memphis Center
Thu 08:52:56 AM 35.6908 -92.0236 56° Northeast 461 531 33,000  Level Memphis Center
Thu 08:53:56 AM 35.7697 -91.8869 55° Northeast 467 537 33,000  Level Memphis Center
Thu 08:54:56 AM 35.8381 -91.7550 57° Northeast 467 537 33,000  Level Memphis Center
Thu 08:55:56 AM 35.9081 -91.6358 54° Northeast 467 537 33,000  Level Memphis Center
Thu 08:56:56 AM 35.9761 -91.4983 59° Northeast 461 531 33,000  Level Memphis Center
Thu 08:57:56 AM 36.0503 -91.3686 55° Northeast 461 531 33,000  Level Memphis Center
Thu 08:58:56 AM 36.1244 -91.2306 56° Northeast 466 536 33,000  Level Memphis Center
Thu 08:59:56 AM 36.2003 -91.0978 55° Northeast 466 536 33,000  Level Memphis Center
Thu 09:00:56 AM 36.2719 -90.9644 56° Northeast 466 536 33,000  Level Memphis Center
Thu 09:01:56 AM 36.3475 -90.8311 55° Northeast 461 531 33,000  Level Memphis Center
Thu 09:02:57 AM 36.4189 -90.6947 57° Northeast 461 531 33,000  Level Memphis Center
Thu 09:03:56 AM 36.4900 -90.5608 57° Northeast 461 531 33,000  Level Memphis Center
Thu 09:04:56 AM 36.5650 -90.4242 56° Northeast 461 531 33,000  Level Memphis Center
Thu 09:05:56 AM 36.6381 -90.2872 56° Northeast 461 531 33,000  Level Memphis Center
Thu 09:06:56 AM 36.7128 -90.1525 55° Northeast 461 531 33,000  Level Memphis Center
Thu 09:07:56 AM 36.7856 -90.0125 57° Northeast 466 536 33,000  Level Memphis Center
Thu 09:08:57 AM 36.8581 -89.8747 57° Northeast 471 542 33,000  Level Memphis Center
Thu 09:09:56 AM 36.9325 -89.7342 56° Northeast 471 542 33,000  Level Memphis Center
Thu 09:10:56 AM 37.0044 -89.5958 57° Northeast 471 542 33,000 150 Level Memphis Center
Thu 09:11:56 AM 37.0786 -89.4547 57° Northeast 477 549 33,300 500 Climbing Memphis Center
Thu 09:12:56 AM 37.1567 -89.3056 57° Northeast 477 549 34,000 350 Climbing Memphis Center
Thu 09:13:56 AM 37.2283 -89.1664 57° Northeast 477 549 34,000 400 Level Memphis Center
Thu 09:14:56 AM 37.2997 -89.0272 57° Northeast 477 549 34,800 366 Climbing Memphis Center
Thu 09:16:40 AM 37.4089 -88.8014 59° Northeast 476 548 35,000 72 Climbing Indianapolis Center
Thu 09:17:42 AM 37.4803 -88.6625 57° Northeast 473 544 35,000  Level Indianapolis Center
Thu 09:18:44 AM 37.5653 -88.4933 58° Northeast 475 547 35,000  Level Indianapolis Center
Thu 09:19:46 AM 37.6361 -88.3539 57° Northeast 471 542 35,000 48 Level Indianapolis Center
Thu 09:20:48 AM 37.7056 -88.2139 58° Northeast 471 542 35,100 532 Climbing Indianapolis Center
Thu 09:21:50 AM 37.7753 -88.0733 58° Northeast 470 541 36,100 968 Climbing Indianapolis Center
Thu 09:22:52 AM 37.8442 -87.9356 58° Northeast 463 533 37,100 968 Climbing Indianapolis Center
Thu 09:23:54 AM 37.9117 -87.7972 58° Northeast 461 531 38,100 919 Climbing Indianapolis Center
Thu 09:24:56 AM 37.9817 -87.6614 57° Northeast 459 528 39,000 435 Climbing Indianapolis Center
Thu 09:25:58 AM 38.0594 -87.4903 60° Northeast 463 533 39,000  Level Indianapolis Center
Thu 09:27:00 AM 38.1181 -87.3439 63° Northeast 464 534 39,000  Level Indianapolis Center
Thu 09:28:02 AM 38.1750 -87.1989 63° Northeast 461 531 39,000  Level Indianapolis Center
Thu 09:29:05 AM 38.2336 -87.0508 63° Northeast 465 535 39,000  Level Indianapolis Center
Thu 09:30:07 AM 38.2911 -86.9056 63° Northeast 462 532 39,000  Level Indianapolis Center
Thu 09:31:09 AM 38.3561 -86.7361 64° Northeast 466 536 39,000  Level Indianapolis Center
Thu 09:32:11 AM 38.4133 -86.5897 63° Northeast 462 532 39,000  Level Indianapolis Center
Thu 09:33:13 AM 38.4714 -86.4433 63° Northeast 463 533 39,000  Level Indianapolis Center
Thu 09:34:15 AM 38.5278 -86.2933 64° Northeast 466 536 39,000  Level Indianapolis Center
Thu 09:35:17 AM 38.5861 -86.1433 64° Northeast 469 540 39,000  Level Indianapolis Center
Thu 09:36:19 AM 38.6431 -85.9939 64° Northeast 467 537 39,000  Level Indianapolis Center
Thu 09:37:21 AM 38.7117 -85.8133 64° Northeast 467 537 39,000  Level Indianapolis Center
Thu 09:38:23 AM 38.7669 -85.6642 65° Northeast 466 536 39,000  Level Indianapolis Center
Thu 09:39:25 AM 38.8222 -85.5158 64° Northeast 467 537 39,000  Level Indianapolis Center
Thu 09:40:27 AM 38.8781 -85.3672 64° Northeast 466 536 39,000  Level Indianapolis Center
Thu 09:41:29 AM 38.9325 -85.2183 65° Northeast 463 533 39,000  Level Indianapolis Center
Thu 09:42:31 AM 38.9975 -85.0422 65° Northeast 460 529 39,000  Level Indianapolis Center
Thu 09:43:33 AM 39.0525 -84.8944 64° Northeast 461 531 39,000  Level Indianapolis Center
Thu 09:44:35 AM 39.1067 -84.7481 64° Northeast 462 532 39,000  Level Indianapolis Center
Thu 09:45:37 AM 39.1600 -84.5964 66° East 462 532 39,000  Level Indianapolis Center
Thu 09:46:39 AM 39.2167 -84.4444 64° Northeast 466 536 39,000  Level Indianapolis Center
Thu 09:47:41 AM 39.2783 -84.2678 66° East 460 529 39,000 -339 Level Indianapolis Center
Thu 09:48:43 AM 39.3331 -84.1147 65° Northeast 459 528 38,300 -1,258 Descending Indianapolis Center
Thu 09:49:45 AM 39.3706 -83.9608 72° East 455 524 36,400 -2,177 Descending Indianapolis Center
Thu 09:50:47 AM 39.4064 -83.8033 74° East 453 521 33,800 -2,274 Descending Indianapolis Center
Thu 09:51:49 AM 39.4631 -83.6539 64° Northeast 463 533 31,700 -1,984 Descending Indianapolis Center
Thu 09:52:51 AM 39.5200 -83.5006 64° Northeast 469 540 29,700 -2,081 Descending Indianapolis Center
Thu 09:53:53 AM 39.5858 -83.3181 65° Northeast 480 552 27,400 -2,081 Descending Indianapolis Center
Thu 09:54:55 AM 39.6408 -83.1669 65° Northeast 468 539 25,400 -1,935 Descending Indianapolis Center
Thu 09:55:57 AM 39.6931 -83.0178 65° Northeast 457 526 23,400 -1,161 Descending Indianapolis Center
Thu 09:56:59 AM 39.7447 -82.8733 65° Northeast 444 511 23,000 -194 Descending Indianapolis Center
Thu 09:58:01 AM 39.7975 -82.7244 65° Northeast 449 517 23,000  Level Indianapolis Center
Thu 09:59:03 AM 39.8489 -82.5803 65° Northeast 440 506 23,000  Level Indianapolis Center
Thu 10:00:05 AM 39.9119 -82.4017 65° Northeast 459 528 23,000 -48 Level Indianapolis Center
Thu 10:01:07 AM 39.9661 -82.2442 66° East 471 542 22,900 -726 Descending Indianapolis Center
Thu 10:02:09 AM 40.0206 -82.0892 65° Northeast 467 537 21,500 -1,452 Descending Indianapolis Center
Thu 10:03:11 AM 40.0697 -81.9481 65° Northeast 432 497 19,900 -1,536 Descending Indianapolis Center
Thu 10:04:14 AM 40.1167 -81.8108 66° East 414 476 18,300 -1,392 Descending Indianapolis Center
Thu 10:05:16 AM 40.1644 -81.6686 66° East 403 464 17,000 -1,371 Descending Indianapolis Center
Thu 10:05:59 AM 40.1756 -81.5614 82° East 372 428 15,900 -1,165 Descending Cleveland Center
Thu 10:06:59 AM 40.1725 -81.4253 92° East 372 428 15,000 -600 Descending Cleveland Center
Thu 10:07:59 AM 40.1692 -81.2922 92° East 366 421 14,700 -950 Descending Cleveland Center
Thu 10:08:59 AM 40.1658 -81.1592 92° East 366 421 13,100 -1,686 Descending Cleveland Center
Thu 10:10:00 AM 40.1600 -81.0314 93° East 361 415 11,300 -1,950 Descending Cleveland Center
Thu 10:10:59 AM 40.1583 -80.9225 91° East 341 392 9,200 -2,067 Descending Cleveland Center
Thu 10:11:59 AM 40.1564 -80.8331 92° East 296 341 7,200 -1,900 Descending Cleveland Center
Thu 10:12:59 AM 40.1525 -80.7461 93° East 255 293 5,400 -1,600 Descending Cleveland Center
Thu 10:13:59 AM 40.1506 -80.6511 92° East 245 282 4,000 -900 Descending Cleveland Center
Thu 10:14:59 AM 40.1464 -80.5614 93° East 250 288 3,600 -500 Descending Cleveland Center
Thu 10:15:59 AM 40.1381 -80.4717 97° East 250 288 3,000 -300 Descending Cleveland Center
Thu 10:16:59 AM 40.1336 -80.3931 94° East 245 282 3,000 1,000 Level Cleveland Center
Thu 10:17:59 AM 40.1272 -80.3033 95° East 245 282 5,000 992 Climbing Cleveland Center
Thu 10:19:00 AM 40.1228 -80.2167 94° East 245 282 5,000  Level Cleveland Center
Thu 10:19:59 AM 40.1164 -80.1269 95° East 245 282 5,000  Level Cleveland Center
Thu 10:21:00 AM 40.1333 -80.2833 288° West  Level FlightAware Approximate
Thu 10:28:00 AM 40.1365 -80.2902 288° West  Level Estimated

Login

Don't have an account? Register now (free) for customized features, flight alerts, and more!